createdAt,value
2023-03-05T00:01:20.277Z,32.60
2023-03-05T00:03:48.497Z,34.00
2023-03-05T00:06:17.544Z,35.20
2023-03-05T00:08:45.587Z,41.10
2023-03-05T00:11:13.895Z,33.70
2023-03-05T00:13:42.173Z,33.60
2023-03-05T00:16:12.940Z,30.10
2023-03-05T00:18:41.060Z,31.80
2023-03-05T00:21:19.776Z,34.40
2023-03-05T00:23:47.840Z,37.70
2023-03-05T00:26:15.809Z,29.30
2023-03-05T00:28:43.929Z,39.60
2023-03-05T00:31:11.995Z,33.70
2023-03-05T00:33:40.174Z,32.80
2023-03-05T00:36:08.776Z,42.50
2023-03-05T00:38:38.094Z,34.30
2023-03-05T00:41:06.141Z,30.10
2023-03-05T00:43:34.160Z,38.20
2023-03-05T00:46:02.934Z,29.00
2023-03-05T00:48:31.082Z,28.10
2023-03-05T00:50:59.098Z,31.60
2023-03-05T00:53:27.238Z,33.80
2023-03-05T00:55:55.290Z,36.70
2023-03-05T00:58:23.248Z,32.60
2023-03-05T01:00:51.260Z,34.00
2023-03-05T01:03:19.268Z,28.10
2023-03-05T01:05:47.279Z,28.70
2023-03-05T01:08:16.127Z,36.10
2023-03-05T01:10:44.301Z,30.30
2023-03-05T01:13:12.314Z,32.40
2023-03-05T01:15:40.512Z,43.30
2023-03-05T01:18:08.559Z,39.70
2023-03-05T01:20:36.544Z,26.70
2023-03-05T01:23:04.697Z,31.30
2023-03-05T01:25:32.760Z,35.90
2023-03-05T01:28:00.839Z,32.50
2023-03-05T01:30:28.905Z,35.50
2023-03-05T01:32:57.201Z,32.50
2023-03-05T01:35:25.599Z,32.40
2023-03-05T01:37:54.449Z,30.50
2023-03-05T01:40:27.580Z,28.10
2023-03-05T01:43:00.657Z,27.20
2023-03-05T01:45:31.806Z,31.00
2023-03-05T01:48:00.480Z,35.70
2023-03-05T01:50:29.713Z,28.20
2023-03-05T01:53:02.703Z,30.20
2023-03-05T01:55:31.053Z,27.70
2023-03-05T01:58:07.034Z,25.70
2023-03-05T02:00:38.179Z,25.70
2023-03-05T02:03:07.670Z,32.20
2023-03-05T02:05:36.835Z,29.30
2023-03-05T02:08:07.206Z,22.90
2023-03-05T02:10:37.403Z,30.90
2023-03-05T02:13:07.601Z,33.20
2023-03-05T02:15:35.696Z,22.50
2023-03-05T02:18:03.771Z,30.20
2023-03-05T02:21:02.534Z,31.30
2023-03-05T02:23:36.580Z,28.40
2023-03-05T02:26:09.522Z,26.80
2023-03-05T02:28:44.894Z,24.60
2023-03-05T02:31:15.032Z,23.40
2023-03-05T02:33:43.040Z,23.50
2023-03-05T02:36:12.286Z,26.10
2023-03-05T02:38:41.055Z,28.90
2023-03-05T02:41:09.511Z,21.20
2023-03-05T02:43:38.011Z,29.20
2023-03-05T02:46:06.556Z,26.80
2023-03-05T02:48:34.864Z,26.10
2023-03-05T02:51:03.624Z,28.70
2023-03-05T02:53:31.706Z,29.00
2023-03-05T02:56:00.517Z,25.10
2023-03-05T02:58:28.579Z,26.10
2023-03-05T03:00:56.813Z,21.60
2023-03-05T03:03:24.990Z,29.00
2023-03-05T03:05:53.094Z,27.60
2023-03-05T03:08:21.041Z,24.00
2023-03-05T03:10:48.975Z,24.20
2023-03-05T03:13:17.580Z,25.00
2023-03-05T03:15:45.548Z,25.10
2023-03-05T03:18:13.653Z,20.30
2023-03-05T03:20:42.128Z,22.20
2023-03-05T03:23:10.210Z,31.10
2023-03-05T03:25:38.440Z,28.50
2023-03-05T03:28:06.453Z,25.00
2023-03-05T03:30:34.403Z,30.30
2023-03-05T03:33:02.496Z,28.90
2023-03-05T03:35:30.579Z,25.20
2023-03-05T03:37:58.741Z,30.00
2023-03-05T03:40:27.102Z,35.10
2023-03-05T03:42:55.183Z,25.20
2023-03-05T03:45:23.203Z,33.80
2023-03-05T03:47:51.850Z,35.00
2023-03-05T03:50:21.659Z,33.10
2023-03-05T03:52:50.040Z,35.20
2023-03-05T03:55:18.215Z,26.80
2023-03-05T03:57:46.283Z,33.00
2023-03-05T04:00:15.010Z,31.60
2023-03-05T04:02:43.470Z,27.00
2023-03-05T04:05:11.570Z,26.30
2023-03-05T04:07:39.792Z,29.30
2023-03-05T04:10:08.580Z,28.50
2023-03-05T04:12:36.651Z,27.70
2023-03-05T04:15:07.997Z,28.20
2023-03-05T04:17:36.109Z,28.50
2023-03-05T04:20:06.203Z,25.60
2023-03-05T04:22:34.272Z,32.30
2023-03-05T04:25:06.579Z,31.10
2023-03-05T04:27:34.814Z,28.70
2023-03-05T04:30:02.765Z,32.30
2023-03-05T04:32:30.984Z,28.40
2023-03-05T04:34:59.424Z,31.80
2023-03-05T04:37:27.655Z,27.80
2023-03-05T04:39:55.613Z,27.50
2023-03-05T04:42:23.728Z,28.30
2023-03-05T04:44:51.810Z,32.90
2023-03-05T04:47:19.845Z,24.90
2023-03-05T04:49:47.950Z,33.70
2023-03-05T04:52:16.026Z,27.50
2023-03-05T04:54:44.812Z,24.40
2023-03-05T04:57:12.829Z,26.20
2023-03-05T04:59:40.957Z,22.20
2023-03-05T05:02:09.014Z,21.20
2023-03-05T05:04:37.199Z,27.80
2023-03-05T05:07:07.689Z,28.10
2023-03-05T05:09:35.712Z,26.90
2023-03-05T05:12:03.816Z,34.90
2023-03-05T05:14:31.917Z,25.90
2023-03-05T05:17:00.678Z,32.10
2023-03-05T05:19:28.652Z,28.80
2023-03-05T05:21:56.748Z,28.80
2023-03-05T05:24:24.636Z,32.90
2023-03-05T05:26:54.957Z,29.00
2023-03-05T05:29:23.135Z,31.70
2023-03-05T05:31:51.285Z,32.00
2023-03-05T05:34:19.341Z,31.70
2023-03-05T05:37:16.526Z,33.40
2023-03-05T05:39:50.192Z,29.60
2023-03-05T05:42:18.932Z,24.70
2023-03-05T05:44:47.776Z,21.40
2023-03-05T05:47:16.588Z,23.60
2023-03-05T05:49:44.751Z,26.30
2023-03-05T05:52:13.421Z,26.30
2023-03-05T05:54:41.510Z,25.80
2023-03-05T05:57:09.496Z,27.30
2023-03-05T05:59:38.515Z,22.60
2023-03-05T06:02:08.002Z,25.50
2023-03-05T06:04:36.275Z,22.80
2023-03-05T06:07:04.366Z,16.40
2023-03-05T06:09:32.548Z,26.90
2023-03-05T06:12:00.591Z,22.00
2023-03-05T06:14:28.696Z,24.30
2023-03-05T06:16:59.109Z,20.00
2023-03-05T06:19:27.157Z,15.00
2023-03-05T06:21:55.094Z,25.00
2023-03-05T06:24:23.094Z,25.90
2023-03-05T06:26:51.067Z,18.10
2023-03-05T06:29:19.238Z,26.60
2023-03-05T06:31:47.318Z,19.50
2023-03-05T06:34:15.328Z,19.30
2023-03-05T06:36:44.475Z,19.20
2023-03-05T06:39:12.547Z,17.80
2023-03-05T06:41:40.820Z,16.30
2023-03-05T06:44:09.716Z,17.20
2023-03-05T06:46:39.389Z,16.10
2023-03-05T06:49:09.800Z,14.30
2023-03-05T06:51:39.501Z,10.90
2023-03-05T06:54:09.576Z,15.40
2023-03-05T06:56:38.493Z,17.40
2023-03-05T06:59:06.644Z,16.10
2023-03-05T07:01:35.053Z,15.90
2023-03-05T07:04:03.409Z,11.30
2023-03-05T07:06:36.018Z,13.60
2023-03-05T07:09:04.886Z,14.90
2023-03-05T07:11:33.004Z,13.20
2023-03-05T07:14:01.312Z,12.90
2023-03-05T07:16:31.218Z,12.70
2023-03-05T07:19:00.430Z,11.70
2023-03-05T07:21:31.803Z,13.30
2023-03-05T07:24:01.083Z,15.20
2023-03-05T07:26:29.189Z,13.90
2023-03-05T07:28:57.318Z,17.70
2023-03-05T07:31:31.086Z,15.80
2023-03-05T07:34:00.222Z,12.50
2023-03-05T07:36:28.394Z,17.20
2023-03-05T07:38:56.559Z,15.70
2023-03-05T07:41:24.789Z,18.30
2023-03-05T07:43:53.559Z,18.00
2023-03-05T07:46:24.851Z,15.70
2023-03-05T07:48:54.752Z,19.80
2023-03-05T07:51:23.546Z,16.20
2023-03-05T07:53:57.541Z,16.80
2023-03-05T07:56:26.953Z,15.90
2023-03-05T07:58:55.377Z,15.50
2023-03-05T08:01:23.630Z,16.00
2023-03-05T08:03:51.862Z,17.00
2023-03-05T08:06:20.267Z,16.10
2023-03-05T08:08:48.484Z,18.30
2023-03-05T08:11:18.931Z,16.40
2023-03-05T08:13:47.619Z,14.70
2023-03-05T08:16:20.081Z,18.10
2023-03-05T08:18:48.620Z,14.40
2023-03-05T08:21:19.314Z,16.30
2023-03-05T08:23:47.731Z,92.60
2023-03-05T08:26:17.754Z,18.50
2023-03-05T08:28:54.724Z,25.40
2023-03-05T08:31:53.730Z,15.80
2023-03-05T08:34:57.944Z,16.00
2023-03-05T08:37:40.454Z,14.90
2023-03-05T08:40:20.311Z,14.20
2023-03-05T08:42:48.619Z,15.40
2023-03-05T08:45:24.707Z,12.90
2023-03-05T08:47:57.331Z,14.90
2023-03-05T08:50:28.681Z,15.70
2023-03-05T08:53:05.394Z,16.30
2023-03-05T08:56:25.498Z,16.10
2023-03-05T08:58:53.961Z,14.00
2023-03-05T09:01:33.603Z,14.10
2023-03-05T09:04:42.985Z,11.90
2023-03-05T09:07:51.856Z,15.90
2023-03-05T09:10:33.110Z,14.00
2023-03-05T09:13:28.673Z,18.50
2023-03-05T09:16:16.283Z,14.40
2023-03-05T09:18:52.757Z,13.10
2023-03-05T09:21:43.323Z,13.00
2023-03-05T09:24:26.059Z,16.50
2023-03-05T09:27:11.359Z,14.60
2023-03-05T09:29:48.186Z,14.10
2023-03-05T09:32:24.803Z,12.10
2023-03-05T09:35:06.030Z,13.20
2023-03-05T09:37:43.181Z,12.90
2023-03-05T09:40:18.011Z,14.30
2023-03-05T09:43:22.649Z,16.20
2023-03-05T09:46:29.979Z,13.40
2023-03-05T09:49:05.162Z,13.30
2023-03-05T09:51:36.501Z,11.70
2023-03-05T09:54:14.397Z,11.10
2023-03-05T09:57:22.091Z,11.00
2023-03-05T10:01:03.257Z,12.00
2023-03-05T10:04:43.989Z,12.80
2023-03-05T10:07:14.187Z,12.80
2023-03-05T10:10:36.309Z,11.50
2023-03-05T10:13:49.898Z,10.40
2023-03-05T10:16:36.759Z,10.70
2023-03-05T10:19:11.095Z,10.10
2023-03-05T10:21:50.740Z,10.20
2023-03-05T10:24:22.385Z,10.30
2023-03-05T10:27:33.765Z,10.30
2023-03-05T10:30:24.961Z,11.80
2023-03-05T10:33:05.238Z,9.40
2023-03-05T10:35:54.750Z,10.90
2023-03-05T10:38:40.930Z,12.10
2023-03-05T10:41:48.386Z,10.20
2023-03-05T10:44:20.073Z,13.90
2023-03-05T10:46:48.284Z,77.60
2023-03-05T10:49:21.377Z,22.00
2023-03-05T10:52:19.058Z,12.30
2023-03-05T10:54:47.220Z,10.20
2023-03-05T10:57:23.339Z,10.60
2023-03-05T11:00:20.526Z,10.30
2023-03-05T11:03:04.624Z,10.40
2023-03-05T11:05:39.192Z,9.50
2023-03-05T11:08:19.603Z,11.90
2023-03-05T11:10:47.659Z,10.90
2023-03-05T11:13:26.388Z,11.00
2023-03-05T11:16:15.125Z,10.00
2023-03-05T11:18:44.478Z,10.30
2023-03-05T11:21:20.869Z,9.30
2023-03-05T11:24:06.052Z,9.80
2023-03-05T11:26:34.406Z,10.70
2023-03-05T11:29:03.353Z,12.10
2023-03-05T11:31:32.577Z,12.30
2023-03-05T11:34:03.372Z,11.60
2023-03-05T11:36:42.121Z,12.30
2023-03-05T11:39:11.740Z,12.30
2023-03-05T11:41:51.745Z,10.50
2023-03-05T11:44:30.659Z,11.30
2023-03-05T11:47:03.254Z,12.20
2023-03-05T11:49:34.123Z,11.10
2023-03-05T11:52:23.250Z,11.00
2023-03-05T11:54:55.003Z,10.20
2023-03-05T11:57:29.004Z,10.80
2023-03-05T11:59:59.371Z,11.60
2023-03-05T12:02:27.565Z,12.40
2023-03-05T12:05:06.587Z,11.50
2023-03-05T12:07:37.190Z,10.80
2023-03-05T12:10:05.686Z,9.30
2023-03-05T12:12:37.652Z,11.70
2023-03-05T12:15:17.934Z,12.30
2023-03-05T12:17:54.477Z,11.30
2023-03-05T12:20:51.777Z,11.10
2023-03-05T12:23:21.252Z,10.80
2023-03-05T12:26:00.152Z,11.10
2023-03-05T12:28:34.092Z,13.10
2023-03-05T12:31:06.050Z,10.60
2023-03-05T12:33:43.663Z,9.80
2023-03-05T12:36:18.091Z,8.70
2023-03-05T12:38:51.989Z,9.40
2023-03-05T12:41:23.098Z,11.60
2023-03-05T12:44:06.170Z,10.40
2023-03-05T12:46:40.702Z,9.90
2023-03-05T12:49:38.214Z,11.00
2023-03-05T12:52:19.885Z,11.40
2023-03-05T12:55:15.400Z,10.20
2023-03-05T12:57:45.805Z,12.40
2023-03-05T13:00:26.346Z,11.70
2023-03-05T13:02:58.910Z,10.40
2023-03-05T13:05:29.651Z,13.20
2023-03-05T13:08:23.339Z,11.60
2023-03-05T13:11:03.745Z,10.80
2023-03-05T13:13:35.385Z,9.20
2023-03-05T13:16:03.938Z,11.00
2023-03-05T13:18:32.909Z,10.20
2023-03-05T13:21:14.564Z,10.30
2023-03-05T13:23:50.369Z,10.10
2023-03-05T13:26:19.178Z,10.10
2023-03-05T13:29:05.852Z,10.60
2023-03-05T13:31:35.547Z,10.90
2023-03-05T13:34:22.192Z,10.60
2023-03-05T13:36:56.999Z,11.10
2023-03-05T13:39:31.871Z,11.80
2023-03-05T13:42:23.459Z,11.50
2023-03-05T13:45:01.089Z,9.80
2023-03-05T13:47:35.033Z,13.30
2023-03-05T13:50:07.495Z,13.00
2023-03-05T13:52:44.862Z,12.40
2023-03-05T13:55:14.637Z,14.10
2023-03-05T13:57:51.102Z,13.70
2023-03-05T14:00:34.294Z,13.90
2023-03-05T14:03:21.079Z,14.70
2023-03-05T14:05:50.104Z,15.80
2023-03-05T14:08:25.522Z,14.80
2023-03-05T14:10:54.106Z,17.30
2023-03-05T14:13:27.256Z,17.00
2023-03-05T14:16:13.950Z,13.50
2023-03-05T14:19:01.669Z,15.30
2023-03-05T14:21:47.540Z,15.90
2023-03-05T14:24:21.956Z,16.50
2023-03-05T14:26:53.835Z,14.90
2023-03-05T14:29:27.990Z,14.10
2023-03-05T14:32:08.668Z,12.10
2023-03-05T14:34:41.093Z,13.50
2023-03-05T14:37:20.108Z,15.70
2023-03-05T14:39:53.266Z,16.00
2023-03-05T14:42:31.981Z,17.80
2023-03-05T14:45:02.642Z,16.40
2023-03-05T14:47:30.638Z,17.40
2023-03-05T14:49:58.790Z,17.50
2023-03-05T14:52:29.705Z,17.20
2023-03-05T14:54:57.712Z,17.10
2023-03-05T14:57:30.336Z,16.40
2023-03-05T14:59:58.512Z,16.40
2023-03-05T15:02:27.047Z,14.00
2023-03-05T15:04:55.412Z,15.10
2023-03-05T15:07:32.341Z,17.00
2023-03-05T15:10:00.544Z,18.60
2023-03-05T15:12:28.578Z,17.30
2023-03-05T15:14:56.784Z,18.20
2023-03-05T15:17:44.624Z,17.00
2023-03-05T15:20:16.112Z,18.70
2023-03-05T15:22:44.493Z,18.60
2023-03-05T15:25:12.975Z,17.60
2023-03-05T15:27:45.014Z,17.10
2023-03-05T15:30:33.372Z,14.90
2023-03-05T15:33:03.478Z,18.90
2023-03-05T15:35:31.548Z,20.30
2023-03-05T15:37:59.663Z,17.60
2023-03-05T15:40:30.468Z,16.90
2023-03-05T15:42:59.117Z,16.10
2023-03-05T15:45:33.048Z,15.10
2023-03-05T15:48:01.258Z,11.70
2023-03-05T15:50:33.376Z,13.80
2023-03-05T15:53:04.266Z,13.80
2023-03-05T15:55:47.032Z,14.70
2023-03-05T15:58:24.243Z,14.60
2023-03-05T16:00:52.452Z,10.50
2023-03-05T16:03:20.679Z,15.30
2023-03-05T16:05:48.746Z,15.70
2023-03-05T16:08:16.731Z,15.10
2023-03-05T16:10:45.090Z,14.70
2023-03-05T16:13:14.393Z,14.10
2023-03-05T16:15:42.431Z,11.10
2023-03-05T16:18:12.428Z,15.60
2023-03-05T16:20:40.506Z,13.10
2023-03-05T16:23:08.669Z,14.20
2023-03-05T16:25:44.911Z,12.50
2023-03-05T16:28:19.114Z,17.50
2023-03-05T16:30:54.751Z,12.20
2023-03-05T16:33:22.852Z,13.30
2023-03-05T16:36:11.434Z,13.40
2023-03-05T16:38:39.561Z,12.20
2023-03-05T16:41:14.660Z,15.00
2023-03-05T16:43:48.086Z,7.80
2023-03-05T16:46:18.694Z,15.80
2023-03-05T16:49:06.192Z,13.00
2023-03-05T16:51:34.819Z,10.10
2023-03-05T16:54:03.252Z,15.20
2023-03-05T16:56:31.449Z,11.50
2023-03-05T16:58:59.616Z,10.00
2023-03-05T17:01:30.387Z,15.90
2023-03-05T17:04:02.226Z,21.90
2023-03-05T17:07:08.218Z,11.10
2023-03-05T17:09:39.585Z,12.40
2023-03-05T17:12:07.776Z,11.10
2023-03-05T17:15:20.143Z,15.50
2023-03-05T17:17:57.165Z,13.10
2023-03-05T17:20:25.606Z,12.70
2023-03-05T17:22:53.810Z,13.40
2023-03-05T17:25:21.916Z,9.40
2023-03-05T17:27:50.013Z,10.20
2023-03-05T17:30:18.116Z,13.50
2023-03-05T17:32:52.444Z,10.30
2023-03-05T17:35:21.611Z,14.50
2023-03-05T17:37:50.211Z,9.60
2023-03-05T17:40:18.423Z,14.00
2023-03-05T17:42:46.528Z,12.10
2023-03-05T17:45:14.807Z,9.60
2023-03-05T17:47:42.990Z,7.80
2023-03-05T17:50:12.294Z,9.00
2023-03-05T17:52:41.495Z,8.10
2023-03-05T17:55:10.775Z,7.20
2023-03-05T17:57:41.498Z,12.50
2023-03-05T18:00:15.100Z,7.40
2023-03-05T18:02:43.760Z,8.10
2023-03-05T18:05:12.032Z,2.80
2023-03-05T18:07:40.169Z,10.80
2023-03-05T18:10:28.747Z,12.20
2023-03-05T18:12:57.198Z,7.40
2023-03-05T18:15:26.022Z,7.80
2023-03-05T18:17:57.344Z,6.90
2023-03-05T18:20:31.214Z,14.00
2023-03-05T18:23:00.007Z,7.70
2023-03-05T18:25:31.317Z,6.80
2023-03-05T18:28:00.514Z,9.10
2023-03-05T18:30:28.785Z,8.00
2023-03-05T18:32:57.105Z,7.90
2023-03-05T18:35:25.378Z,6.60
2023-03-05T18:37:53.817Z,6.40
2023-03-05T18:40:26.298Z,7.50
2023-03-05T18:42:54.543Z,7.60
2023-03-05T18:45:25.008Z,5.00
2023-03-05T18:47:54.448Z,4.10
2023-03-05T18:50:24.843Z,7.50
2023-03-05T18:52:53.802Z,9.00
2023-03-05T18:55:24.230Z,6.90
2023-03-05T18:57:52.658Z,6.80
2023-03-05T19:00:22.862Z,6.70
2023-03-05T19:02:53.487Z,4.90
2023-03-05T19:05:21.610Z,6.30
2023-03-05T19:07:49.835Z,8.50
2023-03-05T19:10:18.098Z,7.00
2023-03-05T19:13:36.296Z,5.60
2023-03-05T19:16:09.472Z,4.70
2023-03-05T19:19:37.497Z,6.30
2023-03-05T19:22:09.759Z,5.30
2023-03-05T19:24:40.623Z,4.60
2023-03-05T19:27:13.291Z,4.80
2023-03-05T19:29:41.928Z,9.80
2023-03-05T19:32:12.435Z,9.10
2023-03-05T19:34:41.670Z,6.50
2023-03-05T19:37:09.696Z,5.60
2023-03-05T19:39:37.965Z,8.60
2023-03-05T19:42:06.601Z,6.50
2023-03-05T19:44:45.482Z,9.50
2023-03-05T19:47:20.149Z,9.20
2023-03-05T19:49:48.322Z,8.40
2023-03-05T19:52:16.632Z,6.40
2023-03-05T19:54:45.024Z,5.40
2023-03-05T19:57:13.111Z,9.80
2023-03-05T19:59:41.273Z,8.50
2023-03-05T20:02:11.744Z,9.00
2023-03-05T20:04:39.878Z,11.90
2023-03-05T20:07:07.961Z,9.40
2023-03-05T20:09:36.013Z,9.50
2023-03-05T20:12:05.650Z,9.60
2023-03-05T20:14:35.456Z,6.90
2023-03-05T20:17:03.714Z,8.10
2023-03-05T20:19:31.910Z,7.60
2023-03-05T20:22:00.141Z,7.40
2023-03-05T20:24:28.296Z,9.30
2023-03-05T20:26:56.455Z,5.90
2023-03-05T20:29:24.548Z,8.00
2023-03-05T20:31:52.975Z,10.10
2023-03-05T20:34:21.233Z,12.20
2023-03-05T20:36:51.333Z,9.50
2023-03-05T20:39:19.535Z,14.70
2023-03-05T20:41:48.572Z,10.70
2023-03-05T20:44:16.854Z,11.40
2023-03-05T20:47:37.725Z,8.90
2023-03-05T20:50:06.733Z,11.50
2023-03-05T20:52:35.000Z,13.20
2023-03-05T20:55:12.461Z,12.00
2023-03-05T20:57:42.088Z,12.20
2023-03-05T21:00:10.729Z,10.60
2023-03-05T21:02:39.962Z,12.20
2023-03-05T21:05:08.232Z,10.20
2023-03-05T21:07:36.324Z,7.20
2023-03-05T21:10:04.977Z,8.90
2023-03-05T21:12:33.310Z,9.60
2023-03-05T21:15:01.266Z,8.90
2023-03-05T21:17:29.301Z,9.20
2023-03-05T21:19:57.472Z,12.40
2023-03-05T21:22:25.563Z,10.70
2023-03-05T21:25:21.904Z,10.10
2023-03-05T21:28:10.962Z,8.40
2023-03-05T21:30:40.875Z,10.10
2023-03-05T21:33:11.248Z,9.90
2023-03-05T21:35:39.524Z,8.00
2023-03-05T21:38:12.263Z,7.20
2023-03-05T21:40:43.755Z,7.50
2023-03-05T21:43:12.309Z,8.60
2023-03-05T21:45:40.412Z,11.10
2023-03-05T21:48:09.085Z,7.40
2023-03-05T21:50:41.121Z,9.70
2023-03-05T21:53:09.342Z,12.00
2023-03-05T21:56:08.721Z,8.80
2023-03-05T21:58:39.791Z,5.50
2023-03-05T22:01:07.791Z,10.90
2023-03-05T22:03:35.806Z,10.70
2023-03-05T22:06:04.297Z,13.20
2023-03-05T22:08:32.334Z,11.60
2023-03-05T22:11:00.632Z,11.00
2023-03-05T22:13:28.672Z,9.90
2023-03-05T22:15:59.496Z,7.80
2023-03-05T22:18:28.967Z,13.30
2023-03-05T22:20:57.609Z,8.30
2023-03-05T22:23:29.214Z,10.60
2023-03-05T22:26:04.361Z,10.60
2023-03-05T22:28:32.744Z,12.30
2023-03-05T22:31:00.833Z,8.50
2023-03-05T22:33:28.924Z,10.10
2023-03-05T22:35:57.093Z,9.90
2023-03-05T22:38:25.446Z,9.70
2023-03-05T22:40:53.433Z,9.40
2023-03-05T22:43:21.591Z,11.00
2023-03-05T22:45:49.726Z,8.50
2023-03-05T22:48:17.810Z,8.50
2023-03-05T22:50:45.925Z,12.10
2023-03-05T22:53:14.020Z,10.80
2023-03-05T22:55:42.197Z,9.00
2023-03-05T22:58:10.396Z,11.40
2023-03-05T23:00:38.444Z,10.50
2023-03-05T23:03:07.244Z,11.90
2023-03-05T23:05:35.517Z,13.90
2023-03-05T23:08:03.614Z,11.10
2023-03-05T23:10:34.300Z,13.30
2023-03-05T23:13:02.449Z,10.80
2023-03-05T23:15:31.518Z,9.70
2023-03-05T23:17:59.743Z,14.70
2023-03-05T23:20:29.777Z,10.50
2023-03-05T23:22:57.885Z,16.70
2023-03-05T23:25:28.308Z,13.60
2023-03-05T23:27:58.075Z,11.50
2023-03-05T23:30:27.470Z,13.50
2023-03-05T23:33:14.179Z,13.30
2023-03-05T23:35:43.898Z,12.40
2023-03-05T23:38:13.019Z,13.30
2023-03-05T23:40:45.669Z,17.40
2023-03-05T23:43:13.977Z,13.20
2023-03-05T23:45:43.036Z,14.80
2023-03-05T23:48:11.313Z,14.80
2023-03-05T23:50:40.574Z,15.80
2023-03-05T23:53:08.797Z,16.50
2023-03-05T23:55:41.490Z,13.40
2023-03-05T23:58:09.835Z,13.00
